createdAt,value
2018-12-18T00:00:37.296Z,98595.95
2018-12-18T00:05:43.385Z,98585.72
2018-12-18T00:10:51.721Z,98587.12
2018-12-18T00:15:55.961Z,98578.46
2018-12-18T00:20:59.695Z,98598.59
2018-12-18T00:26:03.559Z,98609.41
2018-12-18T00:31:07.362Z,98613.60
2018-12-18T00:36:11.241Z,98619.34
2018-12-18T00:41:15.179Z,98630.87
2018-12-18T00:46:19.068Z,98629.34
2018-12-18T00:51:22.919Z,98633.56
2018-12-18T00:56:26.827Z,98616.88
2018-12-18T01:01:30.760Z,98624.92
2018-12-18T01:06:34.621Z,98637.23
2018-12-18T01:11:38.819Z,98637.17
2018-12-18T01:16:42.613Z,98655.02
2018-12-18T01:21:46.426Z,98647.12
2018-12-18T01:26:50.104Z,98637.56
2018-12-18T01:31:54.115Z,98637.61
2018-12-18T01:36:57.886Z,98636.56
2018-12-18T01:42:01.638Z,98631.56
2018-12-18T01:47:05.364Z,98642.32
2018-12-18T01:52:09.252Z,98655.45
2018-12-18T01:57:13.126Z,98634.88
2018-12-18T02:02:17.452Z,98630.90
2018-12-18T02:07:21.269Z,98641.59
2018-12-18T02:12:25.344Z,98646.94
2018-12-18T02:17:29.358Z,98640.31
2018-12-18T02:22:33.463Z,98644.83
2018-12-18T02:27:37.338Z,98620.64
2018-12-18T02:32:41.531Z,98634.99
2018-12-18T02:37:46.651Z,98628.49
2018-12-18T02:42:50.572Z,98634.86
2018-12-18T02:47:54.319Z,98629.74
2018-12-18T02:52:58.181Z,98627.06
2018-12-18T02:58:02.214Z,98617.74
2018-12-18T03:03:06.154Z,98618.64
2018-12-18T03:08:12.042Z,98624.33
2018-12-18T03:13:16.094Z,98628.63
2018-12-18T03:18:19.919Z,98629.42
2018-12-18T03:23:23.683Z,98645.56
2018-12-18T03:28:27.850Z,98645.30
2018-12-18T03:33:32.093Z,98639.94
2018-12-18T03:38:35.990Z,98636.52
2018-12-18T03:43:39.777Z,98620.97
2018-12-18T03:48:43.645Z,98643.13
2018-12-18T03:53:47.466Z,98646.74
2018-12-18T03:58:52.455Z,98669.52
2018-12-18T04:03:56.513Z,98665.55
2018-12-18T04:09:01.870Z,98662.38
2018-12-18T04:14:07.843Z,98672.23
2018-12-18T04:19:13.617Z,98668.33
2018-12-18T04:24:17.587Z,98665.86
2018-12-18T04:29:21.456Z,98674.44
2018-12-18T04:34:25.544Z,98685.22
2018-12-18T04:39:29.355Z,98663.62
2018-12-18T04:44:33.249Z,98693.78
2018-12-18T04:49:37.062Z,98701.66
2018-12-18T04:54:40.921Z,98701.45
2018-12-18T04:59:45.715Z,98708.52
2018-12-18T05:04:50.518Z,98720.63
2018-12-18T05:09:54.686Z,98724.14
2018-12-18T05:14:58.800Z,98728.14
2018-12-18T05:20:03.199Z,98723.80
2018-12-18T05:25:07.209Z,98749.58
2018-12-18T05:30:11.118Z,98754.03
2018-12-18T05:35:16.053Z,98764.84
2018-12-18T05:40:20.116Z,98764.40
2018-12-18T05:45:23.907Z,98765.89
2018-12-18T05:50:28.597Z,98783.22
2018-12-18T05:55:32.484Z,98788.82
2018-12-18T06:00:38.148Z,98789.36
2018-12-18T06:05:41.949Z,98790.72
2018-12-18T06:10:46.605Z,98801.08
2018-12-18T06:15:50.450Z,98787.57
2018-12-18T06:20:54.244Z,98821.69
2018-12-18T06:25:58.224Z,98809.66
2018-12-18T06:31:02.320Z,98801.46
2018-12-18T06:36:06.143Z,98808.85
2018-12-18T06:41:09.981Z,98800.21
2018-12-18T06:46:13.793Z,98801.27
2018-12-18T06:51:17.552Z,98774.06
2018-12-18T06:56:22.667Z,98778.75
2018-12-18T07:01:26.497Z,98795.46
2018-12-18T07:06:30.444Z,98788.41
2018-12-18T07:11:34.285Z,98826.59
2018-12-18T07:16:38.765Z,98831.14
2018-12-18T07:21:43.032Z,98829.55
2018-12-18T07:26:46.825Z,98829.44
2018-12-18T07:31:50.643Z,98830.98
2018-12-18T07:36:54.461Z,98844.07
2018-12-18T07:41:58.511Z,98833.38
2018-12-18T07:47:02.522Z,98818.84
2018-12-18T07:52:06.614Z,98836.44
2018-12-18T07:57:10.632Z,98852.25
2018-12-18T08:02:14.448Z,98865.09
2018-12-18T08:07:18.388Z,98848.40
2018-12-18T08:12:25.718Z,98815.25
2018-12-18T08:17:29.665Z,98848.22
2018-12-18T08:22:33.520Z,98815.02
2018-12-18T08:27:37.807Z,98889.79
2018-12-18T08:32:42.186Z,98930.68
2018-12-18T08:37:46.146Z,98886.41
2018-12-18T08:42:49.942Z,98928.78
2018-12-18T08:47:53.799Z,98911.09
2018-12-18T08:52:57.604Z,98894.15
2018-12-18T08:58:01.566Z,98886.41
2018-12-18T09:03:05.449Z,98914.83
2018-12-18T09:08:09.516Z,98879.16
2018-12-18T09:13:13.641Z,98887.11
2018-12-18T09:18:17.635Z,98905.84
2018-12-18T09:23:21.428Z,98895.40
2018-12-18T09:28:25.338Z,98919.80
2018-12-18T09:33:29.171Z,98919.94
2018-12-18T09:38:38.677Z,98879.95
2018-12-18T09:43:48.038Z,98969.91
2018-12-18T09:48:51.772Z,98870.52
2018-12-18T09:53:55.566Z,98874.86
2018-12-18T09:58:59.474Z,98859.87
2018-12-18T10:04:03.323Z,98837.73
2018-12-18T10:09:09.798Z,98843.84
2018-12-18T10:14:13.829Z,98817.95
2018-12-18T10:19:17.605Z,98824.30
2018-12-18T10:24:21.472Z,98841.08
2018-12-18T10:29:25.142Z,98824.00
2018-12-18T10:34:28.979Z,98869.06
2018-12-18T10:39:32.976Z,98859.42
2018-12-18T10:44:36.946Z,98840.98
2018-12-18T10:49:40.876Z,98843.84
2018-12-18T10:54:44.742Z,98862.47
2018-12-18T10:59:48.753Z,98830.78
2018-12-18T11:04:52.639Z,98851.33
2018-12-18T11:09:56.592Z,98836.69
2018-12-18T11:15:00.727Z,98822.05
2018-12-18T11:20:05.968Z,98803.06
2018-12-18T11:25:10.015Z,98818.20
2018-12-18T11:30:14.101Z,98801.27
2018-12-18T11:35:18.113Z,98804.21
2018-12-18T11:40:22.418Z,98821.78
2018-12-18T11:45:26.349Z,98785.11
2018-12-18T11:50:30.222Z,98785.80
2018-12-18T11:55:34.234Z,98819.19
2018-12-18T12:00:41.596Z,98836.23
2018-12-18T12:05:45.505Z,98831.23
2018-12-18T12:10:49.662Z,98810.80
2018-12-18T12:15:53.875Z,98850.28
2018-12-18T12:20:57.953Z,98817.15
2018-12-18T12:26:06.337Z,98820.00
2018-12-18T12:31:10.335Z,98846.48
2018-12-18T12:36:14.452Z,98807.56
2018-12-18T12:41:18.498Z,98791.58
2018-12-18T12:46:24.457Z,98816.86
2018-12-18T12:51:28.391Z,98828.44
2018-12-18T12:56:32.300Z,98857.85
2018-12-18T13:01:41.962Z,98878.64
2018-12-18T13:06:42.194Z,98828.34
2018-12-18T13:11:46.097Z,98798.38
2018-12-18T13:16:50.052Z,98822.23
2018-12-18T13:21:54.513Z,98815.54
2018-12-18T13:26:58.648Z,98817.23
2018-12-18T13:32:02.971Z,98842.86
2018-12-18T13:37:07.009Z,98833.13
2018-12-18T13:42:11.139Z,98865.45
2018-12-18T13:47:15.145Z,98851.40
2018-12-18T13:52:19.359Z,98845.81
2018-12-18T13:57:23.207Z,98855.70
2018-12-18T14:02:27.154Z,98823.55
2018-12-18T14:07:31.474Z,98859.66
2018-12-18T14:12:35.443Z,98839.12
2018-12-18T14:17:39.895Z,98804.97
2018-12-18T14:22:43.798Z,98798.48
2018-12-18T14:27:47.744Z,98824.25
2018-12-18T14:32:51.898Z,98812.56
2018-12-18T14:37:55.758Z,98846.29
2018-12-18T14:42:59.969Z,98788.18
2018-12-18T14:48:03.900Z,98856.50
2018-12-18T14:53:07.818Z,98860.59
2018-12-18T14:58:11.657Z,98859.45
2018-12-18T15:03:15.465Z,98867.83
2018-12-18T15:08:19.301Z,98844.92
2018-12-18T15:13:23.189Z,98840.14
2018-12-18T15:18:27.140Z,98818.48
2018-12-18T15:23:31.017Z,98818.02
2018-12-18T15:28:34.790Z,98852.73
2018-12-18T15:33:38.817Z,98839.00
2018-12-18T15:38:42.597Z,98847.42
2018-12-18T15:43:46.646Z,98836.05
2018-12-18T15:48:50.486Z,98836.95
2018-12-18T15:53:54.467Z,98838.00
2018-12-18T15:58:58.306Z,98825.17
2018-12-18T16:04:02.219Z,98818.70
2018-12-18T16:09:08.117Z,98829.15
2018-12-18T16:14:14.192Z,98824.37
2018-12-18T16:19:18.596Z,98827.91
2018-12-18T16:24:23.898Z,98893.27
2018-12-18T16:29:28.939Z,98841.95
2018-12-18T16:34:32.773Z,98856.02
2018-12-18T16:39:37.132Z,98909.34
2018-12-18T16:44:42.057Z,98867.03
2018-12-18T16:49:46.210Z,98863.63
2018-12-18T16:54:50.015Z,98868.96
2018-12-18T16:59:54.780Z,98877.73
2018-12-18T17:04:58.473Z,98893.83
2018-12-18T17:10:02.524Z,98886.13
2018-12-18T17:15:06.757Z,98900.30
2018-12-18T17:20:10.789Z,98874.08
2018-12-18T17:25:16.216Z,98910.28
2018-12-18T17:30:20.398Z,98916.19
2018-12-18T17:35:25.274Z,98918.13
2018-12-18T17:40:30.311Z,98936.27
2018-12-18T17:45:36.036Z,98938.17
2018-12-18T17:50:42.286Z,98932.67
2018-12-18T17:55:46.308Z,98936.28
2018-12-18T18:00:51.175Z,98892.98
2018-12-18T18:05:55.535Z,98963.27
2018-12-18T18:11:02.580Z,98922.12
2018-12-18T18:16:07.470Z,98935.72
2018-12-18T18:21:11.486Z,98941.52
2018-12-18T18:26:16.580Z,98946.70
2018-12-18T18:31:20.708Z,98916.34
2018-12-18T18:36:24.730Z,98974.47
2018-12-18T18:41:28.540Z,98902.63
2018-12-18T18:46:33.619Z,98957.41
2018-12-18T18:51:37.855Z,99039.16
2018-12-18T18:56:43.223Z,98837.56
2018-12-18T19:01:47.030Z,98964.11
2018-12-18T19:06:51.622Z,98821.42
2018-12-18T19:11:55.989Z,98917.95
2018-12-18T19:17:00.023Z,98912.13
2018-12-18T19:22:03.961Z,98958.41
2018-12-18T19:27:07.684Z,98970.78
2018-12-18T19:32:11.583Z,98915.22
2018-12-18T19:37:15.611Z,98916.64
2018-12-18T19:42:19.885Z,98913.00
2018-12-18T19:47:23.940Z,98950.34
2018-12-18T19:52:28.039Z,98955.58
2018-12-18T19:57:31.870Z,98926.77
2018-12-18T20:02:35.809Z,98984.93
2018-12-18T20:07:40.144Z,98939.77
2018-12-18T20:12:44.129Z,98966.53
2018-12-18T20:17:48.394Z,98930.96
2018-12-18T20:22:52.561Z,98990.25
2018-12-18T20:27:57.754Z,98966.11
2018-12-18T20:33:01.919Z,98913.52
2018-12-18T20:38:06.491Z,98912.06
2018-12-18T20:43:10.421Z,98933.28
2018-12-18T20:48:14.591Z,98891.40
2018-12-18T20:53:18.436Z,99064.77
2018-12-18T20:58:22.277Z,98994.00
2018-12-18T21:03:26.317Z,98904.84
2018-12-18T21:08:32.344Z,98962.26
2018-12-18T21:13:36.099Z,98837.77
2018-12-18T21:18:40.301Z,98883.83
2018-12-18T21:23:44.435Z,98916.53
2018-12-18T21:28:48.371Z,98936.63
2018-12-18T21:33:52.269Z,99018.17
2018-12-18T21:38:56.355Z,98930.53
2018-12-18T21:44:00.345Z,99071.42
2018-12-18T21:49:04.361Z,98891.75
2018-12-18T21:54:08.147Z,98717.98
2018-12-18T21:59:12.136Z,98847.08
2018-12-18T22:04:15.980Z,98846.55
2018-12-18T22:09:19.686Z,98919.19
2018-12-18T22:14:23.569Z,98875.52
2018-12-18T22:19:27.548Z,98859.31
2018-12-18T22:24:31.633Z,98832.06
2018-12-18T22:29:37.417Z,98848.48
2018-12-18T22:34:41.154Z,98888.47
2018-12-18T22:39:44.879Z,99013.20
2018-12-18T22:44:48.613Z,98876.84
2018-12-18T22:49:52.568Z,98835.58
2018-12-18T22:54:56.557Z,98835.97
2018-12-18T23:00:00.396Z,99037.06
2018-12-18T23:05:04.693Z,98855.34
2018-12-18T23:10:08.920Z,98805.53
2018-12-18T23:15:12.803Z,98868.22
2018-12-18T23:20:16.769Z,98823.95
2018-12-18T23:25:20.832Z,98846.15
2018-12-18T23:30:26.787Z,98816.43
2018-12-18T23:35:30.687Z,99021.04
2018-12-18T23:40:34.499Z,98863.63
2018-12-18T23:45:38.595Z,98757.81
2018-12-18T23:50:42.429Z,98829.75
2018-12-18T23:55:46.256Z,98801.75
